createdAt,value
2022-12-13T00:01:55.454Z,11.70
2022-12-13T00:04:25.325Z,13.35
2022-12-13T00:06:54.048Z,12.50
2022-12-13T00:09:22.072Z,13.20
2022-12-13T00:11:50.313Z,12.90
2022-12-13T00:14:17.921Z,12.20
2022-12-13T00:16:47.100Z,12.38
2022-12-13T00:19:15.475Z,11.50
2022-12-13T00:21:42.445Z,12.25
2022-12-13T00:24:09.646Z,12.90
2022-12-13T00:26:36.564Z,12.77
2022-12-13T00:29:07.837Z,12.23
2022-12-13T00:31:59.325Z,11.85
2022-12-13T00:34:23.792Z,11.55
2022-12-13T00:36:50.747Z,10.55
2022-12-13T00:39:19.044Z,10.95
2022-12-13T00:41:47.130Z,11.55
2022-12-13T00:44:14.731Z,11.77
2022-12-13T00:46:43.027Z,11.90
2022-12-13T00:49:11.709Z,10.55
2022-12-13T00:51:39.749Z,12.23
2022-12-13T00:54:06.901Z,10.85
2022-12-13T00:56:34.421Z,10.80
2022-12-13T00:59:01.557Z,11.07
2022-12-13T01:01:36.470Z,10.75
2022-12-13T01:04:06.376Z,10.70
2022-12-13T01:06:39.739Z,10.63
2022-12-13T01:09:15.188Z,11.32
2022-12-13T01:11:42.139Z,9.25
2022-12-13T01:14:09.133Z,11.65
2022-12-13T01:16:36.395Z,10.38
2022-12-13T01:19:03.515Z,10.07
2022-12-13T01:21:30.568Z,10.80
2022-12-13T01:24:03.325Z,10.20
2022-12-13T01:26:31.554Z,10.80
2022-12-13T01:28:59.169Z,10.02
2022-12-13T01:31:26.170Z,10.40
2022-12-13T01:33:53.206Z,10.68
2022-12-13T01:36:27.074Z,10.00
2022-12-13T01:38:58.403Z,10.95
2022-12-13T01:41:28.555Z,10.57
2022-12-13T01:44:23.965Z,10.50
2022-12-13T01:46:51.266Z,10.75
2022-12-13T01:49:20.914Z,10.98
2022-12-13T01:51:59.032Z,11.43
2022-12-13T01:54:34.571Z,12.25
2022-12-13T01:57:08.504Z,11.07
2022-12-13T01:59:39.785Z,10.93
2022-12-13T02:02:09.927Z,11.80
2022-12-13T02:04:55.340Z,11.57
2022-12-13T02:07:28.421Z,10.60
2022-12-13T02:09:59.815Z,11.60
2022-12-13T02:12:31.018Z,11.07
2022-12-13T02:15:07.823Z,10.63
2022-12-13T02:18:27.888Z,11.13
2022-12-13T02:21:13.448Z,12.07
2022-12-13T02:24:22.512Z,11.50
2022-12-13T02:27:30.649Z,11.82
2022-12-13T02:30:41.262Z,11.00
2022-12-13T02:33:23.157Z,11.98
2022-12-13T02:36:20.404Z,11.73
2022-12-13T02:38:59.523Z,11.38
2022-12-13T02:41:41.812Z,11.18
2022-12-13T02:44:23.330Z,10.85
2022-12-13T02:47:22.656Z,9.98
2022-12-13T02:49:59.245Z,11.15
2022-12-13T02:52:30.766Z,10.13
2022-12-13T02:54:58.419Z,9.90
2022-12-13T02:57:37.324Z,9.82
2022-12-13T03:00:14.057Z,9.95
2022-12-13T03:02:59.123Z,12.15
2022-12-13T03:06:19.248Z,9.95
2022-12-13T03:09:25.405Z,9.75
2022-12-13T03:12:39.085Z,10.75
2022-12-13T03:15:47.612Z,11.80
2022-12-13T03:18:24.930Z,11.25
2022-12-13T03:20:54.838Z,11.65
2022-12-13T03:23:23.261Z,10.75
2022-12-13T03:25:55.212Z,11.50
2022-12-13T03:28:23.254Z,10.90
2022-12-13T03:30:50.263Z,11.68
2022-12-13T03:33:17.474Z,10.05
2022-12-13T03:35:45.771Z,9.82
2022-12-13T03:38:22.670Z,9.95
2022-12-13T03:41:02.478Z,9.10
2022-12-13T03:43:30.155Z,9.82
2022-12-13T03:45:57.071Z,10.30
2022-12-13T03:48:24.604Z,9.88
2022-12-13T03:50:54.052Z,9.48
2022-12-13T03:53:32.483Z,10.50
2022-12-13T03:56:04.496Z,10.20
2022-12-13T03:58:36.503Z,10.80
2022-12-13T04:01:14.612Z,10.32
2022-12-13T04:03:44.462Z,10.00
2022-12-13T04:06:13.078Z,11.05
2022-12-13T04:08:51.393Z,10.95
2022-12-13T04:11:43.214Z,10.45
2022-12-13T04:14:11.882Z,10.90
2022-12-13T04:16:39.062Z,9.98
2022-12-13T04:19:06.035Z,11.13
2022-12-13T04:21:33.122Z,10.90
2022-12-13T04:24:01.509Z,10.45
2022-12-13T04:26:29.388Z,9.68
2022-12-13T04:28:56.761Z,9.80
2022-12-13T04:31:23.898Z,9.35
2022-12-13T04:33:51.614Z,11.40
2022-12-13T04:36:30.913Z,9.82
2022-12-13T04:39:22.586Z,10.07
2022-12-13T04:41:52.086Z,10.38
2022-12-13T04:44:28.340Z,10.30
2022-12-13T04:47:01.175Z,10.88
2022-12-13T04:49:30.105Z,10.63
2022-12-13T04:52:01.225Z,11.75
2022-12-13T04:54:36.222Z,9.32
2022-12-13T04:57:07.227Z,11.95
2022-12-13T04:59:34.552Z,10.98
2022-12-13T05:02:01.575Z,11.90
2022-12-13T05:04:32.680Z,11.65
2022-12-13T05:07:03.908Z,11.85
2022-12-13T05:09:30.909Z,12.00
2022-12-13T05:12:01.217Z,13.32
2022-12-13T05:14:31.487Z,12.05
2022-12-13T05:16:59.892Z,12.32
2022-12-13T05:19:31.300Z,12.57
2022-12-13T05:22:00.933Z,11.77
2022-12-13T05:24:31.443Z,12.93
2022-12-13T05:26:58.875Z,12.85
2022-12-13T05:29:27.560Z,12.88
2022-12-13T05:31:54.592Z,12.60
2022-12-13T05:34:21.767Z,11.63
2022-12-13T05:36:48.659Z,12.63
2022-12-13T05:39:27.895Z,13.10
2022-12-13T05:42:01.761Z,12.30
2022-12-13T05:44:30.085Z,14.00
2022-12-13T05:46:57.001Z,12.10
2022-12-13T05:49:24.228Z,13.73
2022-12-13T05:51:51.342Z,12.70
2022-12-13T05:54:18.280Z,12.05
2022-12-13T05:56:45.155Z,13.48
2022-12-13T05:59:12.034Z,13.05
2022-12-13T06:01:43.701Z,13.55
2022-12-13T06:04:13.243Z,13.35
2022-12-13T06:06:51.755Z,13.65
2022-12-13T06:09:20.413Z,12.70
2022-12-13T06:11:48.277Z,12.60
2022-12-13T06:14:21.741Z,12.80
2022-12-13T06:16:51.937Z,11.98
2022-12-13T06:19:23.265Z,12.70
2022-12-13T06:21:52.481Z,11.50
2022-12-13T06:24:22.631Z,12.38
2022-12-13T06:26:50.602Z,12.20
2022-12-13T06:29:23.756Z,12.10
2022-12-13T06:32:03.118Z,12.23
2022-12-13T06:34:39.474Z,12.73
2022-12-13T06:37:14.985Z,12.80
2022-12-13T06:39:44.419Z,13.52
2022-12-13T06:42:21.767Z,12.45
2022-12-13T06:44:56.010Z,12.30
2022-12-13T06:47:31.148Z,12.32
2022-12-13T06:50:05.075Z,12.90
2022-12-13T06:52:48.063Z,14.43
2022-12-13T06:55:27.875Z,11.52
2022-12-13T06:57:57.913Z,14.02
2022-12-13T07:00:28.561Z,13.85
2022-12-13T07:03:05.553Z,13.30
2022-12-13T07:05:32.709Z,13.88
2022-12-13T07:07:59.638Z,13.80
2022-12-13T07:10:27.703Z,13.85
2022-12-13T07:12:54.727Z,14.88
2022-12-13T07:15:21.911Z,13.43
2022-12-13T07:17:52.338Z,12.93
2022-12-13T07:20:20.186Z,12.60
2022-12-13T07:22:55.074Z,13.00
2022-12-13T07:25:27.756Z,14.85
2022-12-13T07:28:06.844Z,14.60
2022-12-13T07:30:40.957Z,12.63
2022-12-13T07:33:09.928Z,14.38
2022-12-13T07:35:37.616Z,15.23
2022-12-13T07:38:10.862Z,19.17
2022-12-13T07:40:40.464Z,17.73
2022-12-13T07:43:12.053Z,22.23
2022-12-13T07:45:38.935Z,15.27
2022-12-13T07:48:08.554Z,14.93
2022-12-13T07:50:37.311Z,13.52
2022-12-13T07:53:08.717Z,14.32
2022-12-13T07:55:37.529Z,14.60
2022-12-13T07:58:06.598Z,14.55
2022-12-13T08:00:36.365Z,12.43
2022-12-13T08:03:03.905Z,13.88
2022-12-13T08:05:38.843Z,22.90
2022-12-13T08:08:09.531Z,15.30
2022-12-13T08:10:37.083Z,14.85
2022-12-13T08:13:04.593Z,19.52
2022-12-13T08:15:32.191Z,25.05
2022-12-13T08:18:01.278Z,17.48
2022-12-13T08:20:28.175Z,17.67
2022-12-13T08:23:02.298Z,15.43
2022-12-13T08:25:30.739Z,14.82
2022-12-13T08:28:01.966Z,15.95
2022-12-13T08:30:31.901Z,15.90
2022-12-13T08:32:59.292Z,15.57
2022-12-13T08:35:34.568Z,15.77
2022-12-13T08:38:02.659Z,15.25
2022-12-13T08:40:29.607Z,15.15
2022-12-13T08:42:56.698Z,13.80
2022-12-13T08:45:27.227Z,13.10
2022-12-13T08:47:57.065Z,14.20
2022-12-13T08:50:24.056Z,14.70
2022-12-13T08:52:52.348Z,14.07
2022-12-13T08:55:24.988Z,13.30
2022-12-13T08:58:03.650Z,13.48
2022-12-13T09:00:39.060Z,12.57
2022-12-13T09:03:10.144Z,12.75
2022-12-13T09:05:38.288Z,13.07
2022-12-13T09:08:24.632Z,13.18
2022-12-13T09:11:10.620Z,14.10
2022-12-13T09:13:43.434Z,13.40
2022-12-13T09:16:24.371Z,12.75
2022-12-13T09:18:55.959Z,12.75
2022-12-13T09:21:31.061Z,13.18
2022-12-13T09:24:01.969Z,13.43
2022-12-13T09:26:37.826Z,12.85
2022-12-13T09:29:11.471Z,12.45
2022-12-13T09:31:40.512Z,12.48
2022-12-13T09:34:08.783Z,12.75
2022-12-13T09:36:35.743Z,12.75
2022-12-13T09:39:03.431Z,12.57
2022-12-13T09:41:41.337Z,11.95
2022-12-13T09:44:44.009Z,13.02
2022-12-13T09:47:35.277Z,12.77
2022-12-13T09:50:14.829Z,14.75
2022-12-13T09:52:44.089Z,11.88
2022-12-13T09:55:39.044Z,12.70
2022-12-13T09:58:21.133Z,12.00
2022-12-13T10:00:52.623Z,12.30
2022-12-13T10:03:23.336Z,12.25
2022-12-13T10:06:02.019Z,11.88
2022-12-13T10:08:45.313Z,11.68
2022-12-13T10:11:18.693Z,12.55
2022-12-13T10:14:03.359Z,12.57
2022-12-13T10:16:37.131Z,12.63
2022-12-13T10:19:39.149Z,11.30
2022-12-13T10:22:15.506Z,11.85
2022-12-13T10:24:56.547Z,12.23
2022-12-13T10:27:47.552Z,11.80
2022-12-13T10:30:29.228Z,11.43
2022-12-13T10:33:00.990Z,11.50
2022-12-13T10:35:41.078Z,11.15
2022-12-13T10:38:50.676Z,10.27
2022-12-13T10:41:39.096Z,10.75
2022-12-13T10:44:19.138Z,10.82
2022-12-13T10:47:41.186Z,10.25
2022-12-13T10:50:30.556Z,10.05
2022-12-13T10:53:00.547Z,10.30
2022-12-13T10:55:32.073Z,9.70
2022-12-13T10:58:09.701Z,9.70
2022-12-13T11:00:45.367Z,8.80
2022-12-13T11:03:37.262Z,9.00
2022-12-13T11:06:18.165Z,10.07
2022-12-13T11:08:45.095Z,9.93
2022-12-13T11:11:13.121Z,9.15
2022-12-13T11:13:52.907Z,9.27
2022-12-13T11:16:45.291Z,9.13
2022-12-13T11:19:28.119Z,8.80
2022-12-13T11:21:56.301Z,7.88
2022-12-13T11:24:38.273Z,9.30
2022-12-13T11:27:45.191Z,9.25
2022-12-13T11:30:54.889Z,9.57
2022-12-13T11:33:47.811Z,8.30
2022-12-13T11:36:58.465Z,9.13
2022-12-13T11:39:35.587Z,8.10
2022-12-13T11:42:43.209Z,8.68
2022-12-13T11:45:27.716Z,8.65
2022-12-13T11:57:30.819Z,7.65
2022-12-13T12:01:03.809Z,7.20
2022-12-13T12:04:42.710Z,7.15
2022-12-13T12:07:35.879Z,6.72
2022-12-13T12:14:44.043Z,7.07
2022-12-13T12:17:22.721Z,7.45
2022-12-13T12:19:57.573Z,8.48
2022-12-13T12:23:14.342Z,7.53
2022-12-13T12:26:15.279Z,7.45
2022-12-13T12:29:25.552Z,6.07
2022-12-13T12:33:00.912Z,6.25
2022-12-13T12:35:57.108Z,5.63
2022-12-13T12:41:30.621Z,6.20
2022-12-13T12:44:42.483Z,7.03
2022-12-13T12:50:53.322Z,6.35
2022-12-13T12:53:41.673Z,6.43
2022-12-13T12:56:41.400Z,6.85
2022-12-13T12:59:14.161Z,6.90
2022-12-13T13:02:12.674Z,6.00
2022-12-13T13:04:48.459Z,6.20
2022-12-13T13:07:44.506Z,7.93
2022-12-13T13:10:26.846Z,6.03
2022-12-13T13:13:12.594Z,5.82
2022-12-13T13:15:40.157Z,6.20
2022-12-13T13:18:48.833Z,6.85
2022-12-13T13:21:31.646Z,6.20
2022-12-13T13:24:01.924Z,5.60
2022-12-13T13:26:36.010Z,4.88
2022-12-13T13:29:27.033Z,5.20
2022-12-13T13:32:05.601Z,4.93
2022-12-13T13:34:53.281Z,5.95
2022-12-13T13:40:31.552Z,5.45
2022-12-13T13:43:06.249Z,5.85
2022-12-13T13:46:30.476Z,5.35
2022-12-13T13:57:06.904Z,4.45
2022-12-13T14:00:06.070Z,4.78
2022-12-13T14:03:22.093Z,3.90
2022-12-13T14:06:26.715Z,4.10
2022-12-13T14:09:38.542Z,4.63
2022-12-13T14:12:58.580Z,4.45
2022-12-13T14:16:21.403Z,4.20
2022-12-13T14:19:40.731Z,4.50
2022-12-13T14:22:41.390Z,4.70
2022-12-13T14:26:10.211Z,4.65
2022-12-13T14:28:59.353Z,5.07
2022-12-13T14:31:49.510Z,4.68
2022-12-13T14:34:32.030Z,5.38
2022-12-13T14:37:04.918Z,6.30
2022-12-13T14:39:34.645Z,6.63
2022-12-13T14:42:24.551Z,7.38
2022-12-13T14:44:52.870Z,6.82
2022-12-13T14:47:21.342Z,7.70
2022-12-13T14:49:55.233Z,7.32
2022-12-13T14:52:40.040Z,7.00
2022-12-13T14:55:09.030Z,7.33
2022-12-13T14:57:36.036Z,7.20
2022-12-13T15:00:29.375Z,7.45
2022-12-13T15:03:00.439Z,7.28
2022-12-13T15:05:35.554Z,7.43
2022-12-13T15:08:10.914Z,7.70
2022-12-13T15:10:49.594Z,6.80
2022-12-13T15:13:40.012Z,6.82
2022-12-13T15:16:29.189Z,7.10
2022-12-13T15:19:20.742Z,7.07
2022-12-13T15:22:29.643Z,6.70
2022-12-13T15:25:01.384Z,6.50
2022-12-13T15:27:48.492Z,6.68
2022-12-13T15:30:17.610Z,7.22
2022-12-13T15:33:04.560Z,6.75
2022-12-13T15:35:32.351Z,5.25
2022-12-13T15:38:01.837Z,5.40
2022-12-13T15:40:29.309Z,6.53
2022-12-13T15:42:57.522Z,5.78
2022-12-13T15:45:33.173Z,5.68
2022-12-13T15:48:05.170Z,6.45
2022-12-13T15:50:43.728Z,6.68
2022-12-13T15:53:27.429Z,6.30
2022-12-13T15:55:54.801Z,6.43
2022-12-13T15:58:33.740Z,6.50
2022-12-13T16:01:05.312Z,6.90
2022-12-13T16:03:45.193Z,6.13
2022-12-13T16:06:22.164Z,6.85
2022-12-13T16:08:58.186Z,6.07
2022-12-13T16:11:47.793Z,6.68
2022-12-13T16:14:40.023Z,7.80
2022-12-13T16:17:25.549Z,5.38
2022-12-13T16:20:06.186Z,6.57
2022-12-13T16:22:36.414Z,7.18
2022-12-13T16:25:08.528Z,6.90
2022-12-13T16:27:37.866Z,8.02
2022-12-13T16:30:26.914Z,6.68
2022-12-13T16:33:18.285Z,7.20
2022-12-13T16:35:41.438Z,7.03
2022-12-13T16:38:26.501Z,8.13
2022-12-13T16:40:59.472Z,6.13
2022-12-13T16:43:33.509Z,7.90
2022-12-13T16:47:14.683Z,6.28
2022-12-13T16:48:52.512Z,6.70
2022-12-13T16:51:20.662Z,6.85
2022-12-13T16:53:49.101Z,6.50
2022-12-13T16:56:21.442Z,6.18
2022-12-13T16:58:52.154Z,6.32
2022-12-13T17:01:20.904Z,6.70
2022-12-13T17:03:48.395Z,7.43
2022-12-13T17:06:22.101Z,6.70
2022-12-13T17:08:49.157Z,8.55
2022-12-13T17:11:18.279Z,16.38
2022-12-13T17:13:47.591Z,13.02
2022-12-13T17:16:15.494Z,13.05
2022-12-13T17:18:42.400Z,12.25
2022-12-13T17:21:11.093Z,11.18
2022-12-13T17:23:38.017Z,11.63
2022-12-13T17:26:11.433Z,10.30
2022-12-13T17:28:38.727Z,8.82
2022-12-13T17:31:13.377Z,8.77
2022-12-13T17:33:44.788Z,9.23
2022-12-13T17:36:15.224Z,9.20
2022-12-13T17:38:48.041Z,9.40
2022-12-13T17:41:16.317Z,8.23
2022-12-13T17:43:44.632Z,8.93
2022-12-13T17:46:18.541Z,7.50
2022-12-13T17:48:45.807Z,8.95
2022-12-13T17:51:14.911Z,8.25
2022-12-13T17:53:44.014Z,8.85
2022-12-13T17:57:13.214Z,8.43
2022-12-13T17:59:43.157Z,8.55
2022-12-13T18:02:14.684Z,8.48
2022-12-13T18:05:09.352Z,8.07
2022-12-13T18:07:38.010Z,8.60
2022-12-13T18:10:05.822Z,8.32
2022-12-13T18:15:45.249Z,8.27
2022-12-13T18:18:27.851Z,9.18
2022-12-13T18:20:55.161Z,9.30
2022-12-13T18:23:22.160Z,10.50
2022-12-13T18:25:51.055Z,10.57
2022-12-13T18:28:18.365Z,10.30
2022-12-13T18:30:45.415Z,10.98
2022-12-13T18:33:12.606Z,10.60
2022-12-13T18:35:39.778Z,9.50
2022-12-13T18:38:06.799Z,10.50
2022-12-13T18:40:33.860Z,9.98
2022-12-13T18:43:00.967Z,9.95
2022-12-13T18:45:28.218Z,10.43
2022-12-13T18:47:55.397Z,10.13
2022-12-13T18:50:22.895Z,11.07
2022-12-13T18:52:50.051Z,9.73
2022-12-13T18:55:22.922Z,10.13
2022-12-13T18:57:53.087Z,11.57
2022-12-13T19:00:20.814Z,10.85
2022-12-13T19:02:48.320Z,10.90
2022-12-13T19:05:16.703Z,12.02
2022-12-13T19:07:44.078Z,11.70
2022-12-13T19:10:11.421Z,12.85
2022-12-13T19:12:38.650Z,14.23
2022-12-13T19:15:07.255Z,14.27
2022-12-13T19:17:34.548Z,12.85
2022-12-13T19:20:02.449Z,14.43
2022-12-13T19:22:30.618Z,15.35
2022-12-13T19:24:57.861Z,14.43
2022-12-13T19:27:26.210Z,14.25
2022-12-13T19:29:53.494Z,13.85
2022-12-13T19:32:21.971Z,14.43
2022-12-13T19:34:49.205Z,16.00
2022-12-13T19:37:16.588Z,14.10
2022-12-13T19:39:43.837Z,15.57
2022-12-13T19:42:12.678Z,16.23
2022-12-13T19:44:40.127Z,15.38
2022-12-13T19:47:07.530Z,12.23
2022-12-13T19:49:37.007Z,14.25
2022-12-13T19:52:04.576Z,14.02
2022-12-13T19:54:34.568Z,14.85
2022-12-13T19:57:06.986Z,13.98
2022-12-13T19:59:34.491Z,15.25
2022-12-13T20:03:22.564Z,16.77
2022-12-13T20:06:48.415Z,13.05
2022-12-13T20:24:48.331Z,15.05
2022-12-13T20:32:01.563Z,15.63
2022-12-13T20:59:02.523Z,16.20
2022-12-13T21:01:38.788Z,15.82
2022-12-13T21:04:09.684Z,17.77
2022-12-13T21:06:40.793Z,16.60
2022-12-13T21:09:10.722Z,15.50
2022-12-13T21:11:48.996Z,14.82
2022-12-13T21:14:30.557Z,15.50
2022-12-13T21:17:04.718Z,17.45
2022-12-13T21:19:39.567Z,17.00
2022-12-13T21:22:08.034Z,17.33
2022-12-13T21:24:35.427Z,19.65
2022-12-13T21:27:02.683Z,28.50
2022-12-13T21:29:51.857Z,28.25
2022-12-13T21:32:19.284Z,22.90
2022-12-13T21:34:46.365Z,21.52
2022-12-13T21:37:13.341Z,19.13
2022-12-13T21:39:40.351Z,18.55
2022-12-13T21:42:07.383Z,18.27
2022-12-13T21:44:34.264Z,18.50
2022-12-13T21:47:16.365Z,18.88
2022-12-13T21:49:48.624Z,18.92
2022-12-13T21:52:16.746Z,20.45
2022-12-13T21:54:43.612Z,19.05
2022-12-13T21:57:29.239Z,16.85
2022-12-13T22:02:23.673Z,15.63
2022-12-13T22:05:02.078Z,15.65
2022-12-13T22:10:09.635Z,14.65
2022-12-13T22:12:40.664Z,16.45
2022-12-13T22:15:12.348Z,17.35
2022-12-13T22:17:40.649Z,17.23
2022-12-13T22:20:12.561Z,16.13
2022-12-13T22:23:39.922Z,16.50
2022-12-13T22:27:26.133Z,14.15
2022-12-13T22:29:57.088Z,15.73
2022-12-13T22:32:29.700Z,16.58
2022-12-13T22:34:56.985Z,16.67
2022-12-13T22:37:25.042Z,16.05
2022-12-13T22:39:52.103Z,17.63
2022-12-13T22:42:20.237Z,16.08
2022-12-13T22:44:47.721Z,15.57
2022-12-13T22:47:14.753Z,15.30
2022-12-13T22:49:44.882Z,14.43
2022-12-13T22:52:16.280Z,16.58
2022-12-13T22:54:43.474Z,15.18
2022-12-13T22:57:10.527Z,14.65
2022-12-13T22:59:37.463Z,16.60
2022-12-13T23:02:04.571Z,16.33
2022-12-13T23:04:40.067Z,16.08
2022-12-13T23:07:15.945Z,16.33
2022-12-13T23:09:43.190Z,15.75
2022-12-13T23:12:38.421Z,17.70
2022-12-13T23:15:10.187Z,15.15
2022-12-13T23:17:43.070Z,15.25
2022-12-13T23:20:23.562Z,15.35
2022-12-13T23:22:50.880Z,15.57
2022-12-13T23:25:18.222Z,15.48
2022-12-13T23:27:45.439Z,16.50
2022-12-13T23:30:15.389Z,15.20
2022-12-13T23:32:42.611Z,16.80
2022-12-13T23:35:10.328Z,16.42
2022-12-13T23:37:37.621Z,15.57
2022-12-13T23:40:05.802Z,16.73
2022-12-13T23:42:32.705Z,16.25
2022-12-13T23:44:59.721Z,15.98
2022-12-13T23:47:26.580Z,17.98
2022-12-13T23:49:53.424Z,17.23
2022-12-13T23:52:20.349Z,16.23
2022-12-13T23:54:47.212Z,17.63
2022-12-13T23:57:14.080Z,16.92
2022-12-13T23:59:41.182Z,17.80
